sensor_id;sensor_type;location;lat;lon;timestamp;pressure;altitude;pressure_sealevel;temperature;humidity
49178;BME280;35016;55.674;37.468;2023-08-31T00:01:20;99005.34;;;15.18;67.40
49178;BME280;35016;55.674;37.468;2023-08-31T00:03:47;99001.81;;;15.18;67.32
49178;BME280;35016;55.674;37.468;2023-08-31T00:06:15;99006.97;;;15.19;67.57
49178;BME280;35016;55.674;37.468;2023-08-31T00:08:42;99004.75;;;15.22;67.61
49178;BME280;35016;55.674;37.468;2023-08-31T00:11:09;99004.75;;;15.22;67.62
49178;BME280;35016;55.674;37.468;2023-08-31T00:13:36;99014.47;;;15.28;67.41
49178;BME280;35016;55.674;37.468;2023-08-31T00:16:03;99018.00;;;15.28;67.51
49178;BME280;35016;55.674;37.468;2023-08-31T00:18:32;99010.13;;;15.27;67.77
49178;BME280;35016;55.674;37.468;2023-08-31T00:20:59;99021.34;;;15.25;67.52
49178;BME280;35016;55.674;37.468;2023-08-31T00:23:26;99021.66;;;15.24;67.70
49178;BME280;35016;55.674;37.468;2023-08-31T00:25:53;99014.75;;;15.12;67.55
49178;BME280;35016;55.674;37.468;2023-08-31T00:28:21;99013.84;;;15.17;67.73
49178;BME280;35016;55.674;37.468;2023-08-31T00:30:48;99010.09;;;15.13;67.97
49178;BME280;35016;55.674;37.468;2023-08-31T00:33:16;99016.97;;;15.10;68.02
49178;BME280;35016;55.674;37.468;2023-08-31T00:35:45;99019.22;;;15.08;68.16
49178;BME280;35016;55.674;37.468;2023-08-31T00:38:15;99013.25;;;15.06;68.15
49178;BME280;35016;55.674;37.468;2023-08-31T00:40:43;99014.66;;;15.04;68.36
49178;BME280;35016;55.674;37.468;2023-08-31T00:43:14;99019.00;;;15.05;68.50
49178;BME280;35016;55.674;37.468;2023-08-31T00:45:49;99018.69;;;15.06;68.70
49178;BME280;35016;55.674;37.468;2023-08-31T00:48:18;99019.22;;;15.08;68.65
49178;BME280;35016;55.674;37.468;2023-08-31T00:50:46;99014.75;;;15.12;68.74
49178;BME280;35016;55.674;37.468;2023-08-31T00:53:14;99006.47;;;15.17;68.51
49178;BME280;35016;55.674;37.468;2023-08-31T00:55:44;99024.19;;;15.20;68.89
49178;BME280;35016;55.674;37.468;2023-08-31T00:58:12;99026.09;;;15.19;68.74
49178;BME280;35016;55.674;37.468;2023-08-31T01:01:04;99019.00;;;15.18;69.66
49178;BME280;35016;55.674;37.468;2023-08-31T01:03:43;99015.47;;;15.18;69.29
49178;BME280;35016;55.674;37.468;2023-08-31T01:06:36;99014.97;;;15.16;69.01
49178;BME280;35016;55.674;37.468;2023-08-31T01:12:29;99012.63;;;15.09;69.26
49178;BME280;35016;55.674;37.468;2023-08-31T01:15:05;99012.63;;;15.09;69.11
49178;BME280;35016;55.674;37.468;2023-08-31T01:17:48;99023.06;;;15.07;68.96
49178;BME280;35016;55.674;37.468;2023-08-31T01:20:21;99015.16;;;15.06;68.96
49178;BME280;35016;55.674;37.468;2023-08-31T01:23:06;99007.28;;;15.04;69.39
49178;BME280;35016;55.674;37.468;2023-08-31T01:25:37;99018.69;;;15.06;69.17
49178;BME280;35016;55.674;37.468;2023-08-31T01:28:06;99013.25;;;15.06;68.98
49178;BME280;35016;55.674;37.468;2023-08-31T01:30:33;99014.03;;;15.07;69.34
49178;BME280;35016;55.674;37.468;2023-08-31T01:33:01;99011.00;;;15.08;69.47
49178;BME280;35016;55.674;37.468;2023-08-31T01:35:49;99012.63;;;15.09;69.78
49178;BME280;35016;55.674;37.468;2023-08-31T01:38:26;99011.00;;;15.08;69.56
49178;BME280;35016;55.674;37.468;2023-08-31T01:41:00;99012.94;;;15.08;69.35
49178;BME280;35016;55.674;37.468;2023-08-31T01:43:28;99013.75;;;15.08;69.33
49178;BME280;35016;55.674;37.468;2023-08-31T01:45:56;99011.81;;;15.09;69.48
49178;BME280;35016;55.674;37.468;2023-08-31T01:48:25;99004.13;;;15.11;69.23
49178;BME280;35016;55.674;37.468;2023-08-31T01:50:52;98999.19;;;15.13;69.54
49178;BME280;35016;55.674;37.468;2023-08-31T01:53:19;98997.56;;;15.12;69.62
49178;BME280;35016;55.674;37.468;2023-08-31T01:55:46;98997.56;;;15.12;69.69
49178;BME280;35016;55.674;37.468;2023-08-31T01:58:14;98993.41;;;15.14;69.56
49178;BME280;35016;55.674;37.468;2023-08-31T02:00:41;99000.50;;;15.15;69.63
49178;BME280;35016;55.674;37.468;2023-08-31T02:03:08;99001.31;;;15.16;69.71
49178;BME280;35016;55.674;37.468;2023-08-31T02:05:35;99004.03;;;15.16;69.53
49178;BME280;35016;55.674;37.468;2023-08-31T02:08:03;98992.00;;;15.17;69.98
49178;BME280;35016;55.674;37.468;2023-08-31T02:10:30;98985.44;;;15.18;69.92
49178;BME280;35016;55.674;37.468;2023-08-31T02:12:57;98993.94;;;15.16;69.69
49178;BME280;35016;55.674;37.468;2023-08-31T02:15:24;98987.94;;;15.14;69.73
49178;BME280;35016;55.674;37.468;2023-08-31T02:17:52;98989.69;;;15.10;69.60
49178;BME280;35016;55.674;37.468;2023-08-31T02:20:20;98990.28;;;15.07;69.88
49178;BME280;35016;55.674;37.468;2023-08-31T02:22:47;98986.22;;;15.05;69.68
49178;BME280;35016;55.674;37.468;2023-08-31T02:25:16;98994.50;;;15.00;69.97
49178;BME280;35016;55.674;37.468;2023-08-31T02:27:46;98992.88;;;14.99;70.13
49178;BME280;35016;55.674;37.468;2023-08-31T02:30:15;98991.56;;;14.96;70.04
49178;BME280;35016;55.674;37.468;2023-08-31T02:32:43;98996.50;;;14.94;70.27
49178;BME280;35016;55.674;37.468;2023-08-31T02:35:14;98991.66;;;14.91;70.17
49178;BME280;35016;55.674;37.468;2023-08-31T02:37:41;99004.50;;;14.91;70.20
49178;BME280;35016;55.674;37.468;2023-08-31T02:40:10;99005.09;;;14.87;70.38
49178;BME280;35016;55.674;37.468;2023-08-31T02:42:38;99005.09;;;14.87;70.45
49178;BME280;35016;55.674;37.468;2023-08-31T02:45:06;99006.72;;;14.88;70.51
49178;BME280;35016;55.674;37.468;2023-08-31T02:47:33;99011.38;;;14.88;70.58
49178;BME280;35016;55.674;37.468;2023-08-31T02:50:01;99007.53;;;14.89;70.63
49178;BME280;35016;55.674;37.468;2023-08-31T02:52:30;99008.34;;;14.90;70.64
49178;BME280;35016;55.674;37.468;2023-08-31T02:54:57;99003.69;;;14.90;70.89
49178;BME280;35016;55.674;37.468;2023-08-31T02:57:24;99003.69;;;14.90;70.88
49178;BME280;35016;55.674;37.468;2023-08-31T02:59:51;99007.22;;;14.91;71.01
49178;BME280;35016;55.674;37.468;2023-08-31T03:02:19;98997.41;;;14.90;70.90
49178;BME280;35016;55.674;37.468;2023-08-31T03:04:46;99006.13;;;14.92;70.79
49178;BME280;35016;55.674;37.468;2023-08-31T03:07:14;98997.91;;;14.92;70.83
49178;BME280;35016;55.674;37.468;2023-08-31T03:09:42;98987.81;;;14.92;71.08
49178;BME280;35016;55.674;37.468;2023-08-31T03:12:09;98989.94;;;14.95;70.91
49178;BME280;35016;55.674;37.468;2023-08-31T03:14:37;98997.81;;;14.97;70.96
49178;BME280;35016;55.674;37.468;2023-08-31T03:17:04;99001.56;;;15.01;71.14
49178;BME280;35016;55.674;37.468;2023-08-31T03:19:31;99002.09;;;15.03;71.12
49178;BME280;35016;55.674;37.468;2023-08-31T03:21:58;99003.44;;;15.05;70.87
49178;BME280;35016;55.674;37.468;2023-08-31T03:24:25;98988.66;;;15.06;71.13
49178;BME280;35016;55.674;37.468;2023-08-31T03:27:12;98993.53;;;15.09;70.88
49178;BME280;35016;55.674;37.468;2023-08-31T03:29:39;98988.25;;;15.13;70.96
49178;BME280;35016;55.674;37.468;2023-08-31T03:32:07;98986.53;;;15.17;70.97
49178;BME280;35016;55.674;37.468;2023-08-31T03:34:33;98991.09;;;15.22;70.62
49178;BME280;35016;55.674;37.468;2023-08-31T03:37:01;98991.28;;;15.25;70.50
49178;BME280;35016;55.674;37.468;2023-08-31T03:39:28;98997.75;;;15.29;70.53
49178;BME280;35016;55.674;37.468;2023-08-31T03:41:55;98994.72;;;15.31;70.66
49178;BME280;35016;55.674;37.468;2023-08-31T03:44:22;98998.00;;;15.33;70.82
49178;BME280;35016;55.674;37.468;2023-08-31T03:46:50;99004.47;;;15.37;70.86
49178;BME280;35016;55.674;37.468;2023-08-31T03:49:17;99013.97;;;15.39;70.82
49178;BME280;35016;55.674;37.468;2023-08-31T03:51:44;99008.72;;;15.43;70.40
49178;BME280;35016;55.674;37.468;2023-08-31T03:54:12;99001.03;;;15.45;70.37
49178;BME280;35016;55.674;37.468;2023-08-31T03:56:39;99008.31;;;15.49;70.29
49178;BME280;35016;55.674;37.468;2023-08-31T03:59:06;99013.97;;;15.53;70.60
49178;BME280;35016;55.674;37.468;2023-08-31T04:01:33;99010.13;;;15.54;70.40
49178;BME280;35016;55.674;37.468;2023-08-31T04:04:00;99016.06;;;15.61;70.09
49178;BME280;35016;55.674;37.468;2023-08-31T04:06:29;99014.81;;;15.67;70.01
49178;BME280;35016;55.674;37.468;2023-08-31T04:08:57;99014.22;;;15.70;69.91
49178;BME280;35016;55.674;37.468;2023-08-31T04:11:25;99020.69;;;15.74;69.91
49178;BME280;35016;55.674;37.468;2023-08-31T04:13:52;99026.34;;;15.78;69.97
49178;BME280;35016;55.674;37.468;2023-08-31T04:16:20;99025.44;;;15.83;69.62
49178;BME280;35016;55.674;37.468;2023-08-31T04:18:47;99024.19;;;15.89;69.28
49178;BME280;35016;55.674;37.468;2023-08-31T04:21:18;99014.00;;;15.94;69.45
49178;BME280;35016;55.674;37.468;2023-08-31T04:23:47;99021.28;;;15.99;69.14
49178;BME280;35016;55.674;37.468;2023-08-31T04:26:14;99029.97;;;16.01;69.09
49178;BME280;35016;55.674;37.468;2023-08-31T04:28:44;99026.31;;;16.05;68.97
49178;BME280;35016;55.674;37.468;2023-08-31T04:31:11;99027.63;;;16.08;68.85
49178;BME280;35016;55.674;37.468;2023-08-31T04:33:38;99028.50;;;16.17;69.10
49178;BME280;35016;55.674;37.468;2023-08-31T04:36:07;99022.94;;;16.22;69.05
49178;BME280;35016;55.674;37.468;2023-08-31T04:38:34;99027.19;;;16.28;69.13
49178;BME280;35016;55.674;37.468;2023-08-31T04:41:01;99033.53;;;16.37;68.91
49178;BME280;35016;55.674;37.468;2023-08-31T04:43:29;99033.41;;;16.42;68.53
49178;BME280;35016;55.674;37.468;2023-08-31T04:45:56;99029.34;;;16.54;68.33
49178;BME280;35016;55.674;37.468;2023-08-31T04:48:24;99034.88;;;16.62;68.58
49178;BME280;35016;55.674;37.468;2023-08-31T04:50:56;99032.84;;;16.68;68.42
49178;BME280;35016;55.674;37.468;2023-08-31T04:53:24;99031.91;;;16.72;68.00
49178;BME280;35016;55.674;37.468;2023-08-31T04:55:51;99041.72;;;16.73;68.31
49178;BME280;35016;55.674;37.468;2023-08-31T04:58:18;99040.94;;;16.73;68.04
49178;BME280;35016;55.674;37.468;2023-08-31T05:00:45;99031.59;;;16.74;67.93
49178;BME280;35016;55.674;37.468;2023-08-31T05:03:14;99031.59;;;16.74;67.49
49178;BME280;35016;55.674;37.468;2023-08-31T05:05:41;99037.06;;;16.74;67.76
49178;BME280;35016;55.674;37.468;2023-08-31T05:08:09;99028.53;;;16.76;67.48
49178;BME280;35016;55.674;37.468;2023-08-31T05:10:36;99033.75;;;16.77;67.40
49178;BME280;35016;55.674;37.468;2023-08-31T05:13:03;99029.56;;;16.80;67.37
49178;BME280;35016;55.674;37.468;2023-08-31T05:15:31;99026.31;;;16.78;67.37
49178;BME280;35016;55.674;37.468;2023-08-31T05:18:00;99029.06;;;16.78;67.25
49178;BME280;35016;55.674;37.468;2023-08-31T05:20:27;99032.31;;;16.80;67.16
49178;BME280;35016;55.674;37.468;2023-08-31T05:22:55;99053.91;;;16.81;67.47
49178;BME280;35016;55.674;37.468;2023-08-31T05:25:22;99043.63;;;16.87;67.09
49178;BME280;35016;55.674;37.468;2023-08-31T05:27:52;99047.72;;;16.98;67.16
49178;BME280;35016;55.674;37.468;2023-08-31T05:30:19;99041.69;;;17.10;66.70
49178;BME280;35016;55.674;37.468;2023-08-31T05:32:46;99043.81;;;17.21;66.73
49178;BME280;35016;55.674;37.468;2023-08-31T05:35:13;99047.59;;;17.34;66.43
49178;BME280;35016;55.674;37.468;2023-08-31T05:37:40;99054.75;;;17.44;66.04
49178;BME280;35016;55.674;37.468;2023-08-31T05:40:08;99065.44;;;17.54;66.17
49178;BME280;35016;55.674;37.468;2023-08-31T05:42:37;99065.97;;;17.64;65.98
49178;BME280;35016;55.674;37.468;2023-08-31T05:45:04;99066.22;;;17.77;65.72
49178;BME280;35016;55.674;37.468;2023-08-31T05:47:32;99070.59;;;17.86;65.46
49178;BME280;35016;55.674;37.468;2023-08-31T05:49:59;99073.88;;;17.97;65.21
49178;BME280;35016;55.674;37.468;2023-08-31T05:52:26;99086.97;;;18.09;64.89
49178;BME280;35016;55.674;37.468;2023-08-31T05:54:54;99076.81;;;18.18;64.63
49178;BME280;35016;55.674;37.468;2023-08-31T05:57:22;99079.25;;;18.28;64.33
49178;BME280;35016;55.674;37.468;2023-08-31T05:59:49;99082.81;;;18.37;64.21
49178;BME280;35016;55.674;37.468;2023-08-31T06:02:16;99083.16;;;18.44;63.98
49178;BME280;35016;55.674;37.468;2023-08-31T06:04:43;99087.88;;;18.52;63.83
49178;BME280;35016;55.674;37.468;2023-08-31T06:07:11;99082.69;;;18.60;63.65
49178;BME280;35016;55.674;37.468;2023-08-31T06:09:38;99091.75;;;18.69;63.49
49178;BME280;35016;55.674;37.468;2023-08-31T06:12:05;99094.81;;;18.76;63.32
49178;BME280;35016;55.674;37.468;2023-08-31T06:14:33;99090.47;;;18.83;63.16
49178;BME280;35016;55.674;37.468;2023-08-31T06:17:00;99083.50;;;18.95;62.72
49178;BME280;35016;55.674;37.468;2023-08-31T06:19:28;99085.13;;;19.04;62.54
49178;BME280;35016;55.674;37.468;2023-08-31T06:21:55;99086.25;;;19.12;62.46
49178;BME280;35016;55.674;37.468;2023-08-31T06:24:22;99084.63;;;19.19;62.24
49178;BME280;35016;55.674;37.468;2023-08-31T06:26:49;99080.22;;;19.27;62.02
49178;BME280;35016;55.674;37.468;2023-08-31T06:29:16;99070.66;;;19.33;61.77
49178;BME280;35016;55.674;37.468;2023-08-31T06:31:43;99069.19;;;19.44;61.47
49178;BME280;35016;55.674;37.468;2023-08-31T06:34:11;99073.03;;;19.52;61.48
49178;BME280;35016;55.674;37.468;2023-08-31T06:36:38;99072.22;;;19.60;61.30
49178;BME280;35016;55.674;37.468;2023-08-31T06:39:06;99078.84;;;19.68;61.17
49178;BME280;35016;55.674;37.468;2023-08-31T06:41:33;99085.78;;;19.74;60.94
49178;BME280;35016;55.674;37.468;2023-08-31T06:44:02;99094.31;;;19.81;60.50
49178;BME280;35016;55.674;37.468;2023-08-31T06:46:29;99091.06;;;19.88;60.52
49178;BME280;35016;55.674;37.468;2023-08-31T06:49:00;99091.34;;;19.95;60.26
49178;BME280;35016;55.674;37.468;2023-08-31T06:51:27;99088.75;;;19.98;60.08
49178;BME280;35016;55.674;37.468;2023-08-31T06:53:55;99078.50;;;20.07;59.88
49178;BME280;35016;55.674;37.468;2023-08-31T06:56:23;99085.88;;;20.16;59.88
49178;BME280;35016;55.674;37.468;2023-08-31T06:58:50;99085.53;;;20.26;59.80
49178;BME280;35016;55.674;37.468;2023-08-31T07:01:17;99079.94;;;20.34;59.37
49178;BME280;35016;55.674;37.468;2023-08-31T07:03:44;99086.56;;;20.42;58.90
49178;BME280;35016;55.674;37.468;2023-08-31T07:06:11;99089.59;;;20.49;58.77
49178;BME280;35016;55.674;37.468;2023-08-31T07:08:38;99089.22;;;20.59;58.66
49178;BME280;35016;55.674;37.468;2023-08-31T07:11:07;99091.91;;;20.68;58.47
49178;BME280;35016;55.674;37.468;2023-08-31T07:13:34;99086.31;;;20.77;58.12
49178;BME280;35016;55.674;37.468;2023-08-31T07:16:01;99078.44;;;20.87;57.81
49178;BME280;35016;55.674;37.468;2023-08-31T07:18:28;99077.00;;;21.02;57.72
49178;BME280;35016;55.674;37.468;2023-08-31T07:20:55;99084.19;;;21.15;57.36
49178;BME280;35016;55.674;37.468;2023-08-31T07:23:22;99085.97;;;21.32;57.14
49178;BME280;35016;55.674;37.468;2023-08-31T07:25:50;99085.69;;;21.46;56.81
49178;BME280;35016;55.674;37.468;2023-08-31T07:28:17;99080.63;;;21.60;56.37
49178;BME280;35016;55.674;37.468;2023-08-31T07:30:44;99075.63;;;21.74;56.07
49178;BME280;35016;55.674;37.468;2023-08-31T07:33:11;99079.06;;;21.83;55.93
49178;BME280;35016;55.674;37.468;2023-08-31T07:35:56;99075.84;;;21.93;55.72
49178;BME280;35016;55.674;37.468;2023-08-31T07:38:26;99084.03;;;22.02;55.33
49178;BME280;35016;55.674;37.468;2023-08-31T07:40:56;99085.53;;;22.12;54.86
49178;BME280;35016;55.674;37.468;2023-08-31T07:43:23;99073.44;;;22.16;54.74
49178;BME280;35016;55.674;37.468;2023-08-31T07:45:50;99072.06;;;22.22;54.78
49178;BME280;35016;55.674;37.468;2023-08-31T07:48:24;99074.25;;;22.29;53.91
49178;BME280;35016;55.674;37.468;2023-08-31T07:51:54;99074.13;;;22.38;54.28
49178;BME280;35016;55.674;37.468;2023-08-31T07:54:22;99074.69;;;22.43;53.92
49178;BME280;35016;55.674;37.468;2023-08-31T07:56:54;99073.63;;;22.60;54.02
49178;BME280;35016;55.674;37.468;2023-08-31T07:59:22;99075.88;;;22.70;53.79
49178;BME280;35016;55.674;37.468;2023-08-31T08:01:49;99079.44;;;22.83;53.39
49178;BME280;35016;55.674;37.468;2023-08-31T08:04:22;99075.03;;;22.94;52.99
49178;BME280;35016;55.674;37.468;2023-08-31T08:06:51;99069.78;;;23.05;52.78
49178;BME280;35016;55.674;37.468;2023-08-31T08:09:18;99063.53;;;23.08;52.48
49178;BME280;35016;55.674;37.468;2023-08-31T08:11:51;99063.91;;;23.06;51.76
49178;BME280;35016;55.674;37.468;2023-08-31T08:14:57;99058.91;;;23.12;52.06
49178;BME280;35016;55.674;37.468;2023-08-31T08:17:27;99064.22;;;23.17;52.14
49178;BME280;35016;55.674;37.468;2023-08-31T08:19:56;99059.47;;;23.17;51.76
49178;BME280;35016;55.674;37.468;2023-08-31T08:22:27;99047.72;;;23.21;51.51
49178;BME280;35016;55.674;37.468;2023-08-31T08:24:57;99052.53;;;23.24;51.58
49178;BME280;35016;55.674;37.468;2023-08-31T08:27:24;99058.88;;;23.24;51.85
49178;BME280;35016;55.674;37.468;2023-08-31T08:29:53;99061.63;;;23.24;51.96
49178;BME280;35016;55.674;37.468;2023-08-31T08:32:23;99067.25;;;23.28;51.56
49178;BME280;35016;55.674;37.468;2023-08-31T08:34:53;99072.53;;;23.33;51.30
49178;BME280;35016;55.674;37.468;2023-08-31T08:37:22;99073.34;;;23.33;50.89
49178;BME280;35016;55.674;37.468;2023-08-31T08:39:49;99077.88;;;23.41;50.75
49178;BME280;35016;55.674;37.468;2023-08-31T08:42:24;99075.69;;;23.47;50.66
49178;BME280;35016;55.674;37.468;2023-08-31T08:44:52;99075.53;;;23.56;50.53
49178;BME280;35016;55.674;37.468;2023-08-31T08:47:22;99078.47;;;23.63;50.34
49178;BME280;35016;55.674;37.468;2023-08-31T08:49:51;99074.28;;;23.69;50.15
49178;BME280;35016;55.674;37.468;2023-08-31T08:52:21;99077.16;;;23.72;50.22
49178;BME280;35016;55.674;37.468;2023-08-31T08:54:49;99077.25;;;23.76;49.87
49178;BME280;35016;55.674;37.468;2023-08-31T08:57:16;99080.91;;;23.80;49.79
49178;BME280;35016;55.674;37.468;2023-08-31T08:59:43;99077.88;;;23.85;49.55
49178;BME280;35016;55.674;37.468;2023-08-31T09:02:11;99078.75;;;23.89;49.26
49178;BME280;35016;55.674;37.468;2023-08-31T09:04:42;99081.63;;;23.93;49.04
49178;BME280;35016;55.674;37.468;2023-08-31T09:07:09;99079.28;;;23.95;48.76
49178;BME280;35016;55.674;37.468;2023-08-31T09:09:52;99075.53;;;24.03;48.25
49178;BME280;35016;55.674;37.468;2023-08-31T09:12:45;99074.09;;;24.09;48.47
49178;BME280;35016;55.674;37.468;2023-08-31T09:15:12;99073.47;;;24.16;48.42
49178;BME280;35016;55.674;37.468;2023-08-31T09:17:41;99071.06;;;24.14;47.77
49178;BME280;35016;55.674;37.468;2023-08-31T09:20:10;99078.19;;;24.15;47.51
49178;BME280;35016;55.674;37.468;2023-08-31T09:22:42;99075.06;;;24.17;46.79
49178;BME280;35016;55.674;37.468;2023-08-31T09:25:13;99077.84;;;24.17;46.87
49178;BME280;35016;55.674;37.468;2023-08-31T09:27:42;99078.63;;;24.17;46.34
49178;BME280;35016;55.674;37.468;2023-08-31T09:30:11;99073.91;;;24.18;46.50
49178;BME280;35016;55.674;37.468;2023-08-31T09:32:40;99072.72;;;24.19;46.45
49178;BME280;35016;55.674;37.468;2023-08-31T09:35:11;99070.84;;;24.23;46.37
49178;BME280;35016;55.674;37.468;2023-08-31T09:37:57;99074.28;;;24.32;46.20
49178;BME280;35016;55.674;37.468;2023-08-31T09:40:25;99076.41;;;24.38;46.46
49178;BME280;35016;55.674;37.468;2023-08-31T09:42:52;99077.34;;;24.46;46.36
49178;BME280;35016;55.674;37.468;2023-08-31T09:45:30;99073.13;;;24.52;45.88
49178;BME280;35016;55.674;37.468;2023-08-31T09:48:13;99069.63;;;24.55;46.10
49178;BME280;35016;55.674;37.468;2023-08-31T09:50:44;99080.91;;;24.62;45.85
49178;BME280;35016;55.674;37.468;2023-08-31T09:53:15;99082.22;;;24.68;45.60
49178;BME280;35016;55.674;37.468;2023-08-31T09:55:43;99074.41;;;24.74;45.92
49178;BME280;35016;55.674;37.468;2023-08-31T09:58:11;99077.38;;;24.85;45.76
49178;BME280;35016;55.674;37.468;2023-08-31T10:00:43;99077.63;;;24.95;45.85
49178;BME280;35016;55.674;37.468;2023-08-31T10:03:12;99079.03;;;25.05;45.60
49178;BME280;35016;55.674;37.468;2023-08-31T10:05:48;99075.31;;;25.17;45.12
49178;BME280;35016;55.674;37.468;2023-08-31T10:08:17;99075.06;;;25.25;44.95
49178;BME280;35016;55.674;37.468;2023-08-31T10:10:45;99075.19;;;25.32;44.79
49178;BME280;35016;55.674;37.468;2023-08-31T10:13:13;99074.09;;;25.37;44.55
49178;BME280;35016;55.674;37.468;2023-08-31T10:15:43;99063.84;;;25.41;44.49
49178;BME280;35016;55.674;37.468;2023-08-31T10:18:11;99061.50;;;25.43;44.42
49178;BME280;35016;55.674;37.468;2023-08-31T10:20:42;99055.66;;;25.48;43.89
49178;BME280;35016;55.674;37.468;2023-08-31T10:23:10;99069.25;;;25.53;43.75
49178;BME280;35016;55.674;37.468;2023-08-31T10:28:18;99057.81;;;25.58;43.82
49178;BME280;35016;55.674;37.468;2023-08-31T10:33:42;99057.78;;;25.78;43.18
49178;BME280;35016;55.674;37.468;2023-08-31T10:36:12;99057.91;;;25.85;43.33
49178;BME280;35016;55.674;37.468;2023-08-31T10:38:41;99056.84;;;25.93;43.34
49178;BME280;35016;55.674;37.468;2023-08-31T10:43:50;99058.34;;;26.13;42.83
49178;BME280;35016;55.674;37.468;2023-08-31T10:51:31;99055.84;;;26.31;42.57
49178;BME280;35016;55.674;37.468;2023-08-31T10:54:13;99054.22;;;26.30;42.83
49178;BME280;35016;55.674;37.468;2023-08-31T10:57:02;99057.53;;;26.36;43.05
49178;BME280;35016;55.674;37.468;2023-08-31T10:59:49;99050.41;;;26.38;43.13
49178;BME280;35016;55.674;37.468;2023-08-31T11:02:29;99056.44;;;26.44;42.71
49178;BME280;35016;55.674;37.468;2023-08-31T11:05:17;99051.25;;;26.42;43.00
49178;BME280;35016;55.674;37.468;2023-08-31T11:07:47;99048.81;;;26.37;43.04
49178;BME280;35016;55.674;37.468;2023-08-31T11:12:47;99045.28;;;26.40;43.25
49178;BME280;35016;55.674;37.468;2023-08-31T11:15:17;99044.47;;;26.40;43.21
49178;BME280;35016;55.674;37.468;2023-08-31T11:17:44;99038.97;;;26.43;43.42
49178;BME280;35016;55.674;37.468;2023-08-31T11:20:16;99030.28;;;26.48;43.24
49178;BME280;35016;55.674;37.468;2023-08-31T11:22:46;99030.38;;;26.55;42.96
49178;BME280;35016;55.674;37.468;2023-08-31T11:25:16;99035.97;;;26.59;43.01
49178;BME280;35016;55.674;37.468;2023-08-31T11:27:55;99038.03;;;26.62;42.28
49178;BME280;35016;55.674;37.468;2023-08-31T11:30:25;99039.63;;;26.63;42.63
49178;BME280;35016;55.674;37.468;2023-08-31T11:32:53;99036.50;;;26.68;42.66
49178;BME280;35016;55.674;37.468;2023-08-31T11:35:21;99043.72;;;26.73;42.75
49178;BME280;35016;55.674;37.468;2023-08-31T11:37:50;99037.81;;;26.78;42.76
49178;BME280;35016;55.674;37.468;2023-08-31T11:40:18;99022.72;;;26.79;42.89
49178;BME280;35016;55.674;37.468;2023-08-31T11:42:48;99020.69;;;26.76;42.55
49178;BME280;35016;55.674;37.468;2023-08-31T11:45:15;99013.16;;;26.76;42.46
49178;BME280;35016;55.674;37.468;2023-08-31T11:47:43;99013.16;;;26.76;42.61
49178;BME280;35016;55.674;37.468;2023-08-31T11:50:13;99017.97;;;26.79;42.47
49178;BME280;35016;55.674;37.468;2023-08-31T11:52:41;99009.59;;;26.79;42.83
49178;BME280;35016;55.674;37.468;2023-08-31T11:55:13;98997.34;;;26.84;42.34
49178;BME280;35016;55.674;37.468;2023-08-31T11:57:50;98994.69;;;26.95;42.10
49178;BME280;35016;55.674;37.468;2023-08-31T12:00:19;98996.50;;;27.13;41.93
49178;BME280;35016;55.674;37.468;2023-08-31T12:03:00;99002.34;;;27.45;41.33
49178;BME280;35016;55.674;37.468;2023-08-31T12:05:28;98991.53;;;27.77;40.86
49178;BME280;35016;55.674;37.468;2023-08-31T12:07:56;98992.97;;;28.16;40.47
49178;BME280;35016;55.674;37.468;2023-08-31T12:10:24;98987.28;;;28.63;40.26
49178;BME280;35016;55.674;37.468;2023-08-31T12:12:53;98973.09;;;29.22;39.53
49178;BME280;35016;55.674;37.468;2023-08-31T12:15:30;98986.69;;;29.84;38.32
49178;BME280;35016;55.674;37.468;2023-08-31T12:17:58;98993.38;;;30.43;38.13
49178;BME280;35016;55.674;37.468;2023-08-31T12:20:27;98987.91;;;31.06;37.24
49178;BME280;35016;55.674;37.468;2023-08-31T12:22:55;98981.94;;;31.63;37.17
49178;BME280;35016;55.674;37.468;2023-08-31T12:25:22;98988.59;;;32.21;36.57
49178;BME280;35016;55.674;37.468;2023-08-31T12:27:49;98992.75;;;32.81;35.68
49178;BME280;35016;55.674;37.468;2023-08-31T12:30:17;98985.19;;;33.35;34.55
49178;BME280;35016;55.674;37.468;2023-08-31T12:32:44;98983.88;;;33.90;33.80
49178;BME280;35016;55.674;37.468;2023-08-31T12:35:11;98980.53;;;34.42;32.80
49178;BME280;35016;55.674;37.468;2023-08-31T12:37:41;98979.22;;;34.86;32.14
49178;BME280;35016;55.674;37.468;2023-08-31T12:40:09;98982.59;;;35.33;31.64
49178;BME280;35016;55.674;37.468;2023-08-31T12:42:37;98981.34;;;35.67;30.39
49178;BME280;35016;55.674;37.468;2023-08-31T12:45:04;98978.09;;;35.85;30.02
49178;BME280;35016;55.674;37.468;2023-08-31T12:47:34;98974.69;;;36.06;29.52
49178;BME280;35016;55.674;37.468;2023-08-31T12:50:02;98974.63;;;36.39;29.03
49178;BME280;35016;55.674;37.468;2023-08-31T12:52:30;98975.25;;;36.59;28.70
49178;BME280;35016;55.674;37.468;2023-08-31T12:54:58;98974.31;;;36.78;27.95
49178;BME280;35016;55.674;37.468;2023-08-31T12:57:25;98967.88;;;36.90;27.65
49178;BME280;35016;55.674;37.468;2023-08-31T12:59:52;98963.59;;;37.24;27.39
49178;BME280;35016;55.674;37.468;2023-08-31T13:02:19;98965.28;;;37.60;27.33
49178;BME280;35016;55.674;37.468;2023-08-31T13:04:47;98970.91;;;37.85;26.59
49178;BME280;35016;55.674;37.468;2023-08-31T13:07:14;98971.13;;;37.91;26.47
49178;BME280;35016;55.674;37.468;2023-08-31T13:09:41;98979.97;;;37.93;26.23
49178;BME280;35016;55.674;37.468;2023-08-31T13:12:09;98980.63;;;37.97;26.03
49178;BME280;35016;55.674;37.468;2023-08-31T13:14:36;98968.31;;;38.12;25.73
49178;BME280;35016;55.674;37.468;2023-08-31T13:17:03;98964.81;;;38.21;25.52
49178;BME280;35016;55.674;37.468;2023-08-31T13:19:30;98966.91;;;38.30;25.36
49178;BME280;35016;55.674;37.468;2023-08-31T13:21:58;98971.06;;;38.38;25.22